Abernant, AL

3:47 AM CST on February 12, 2016 (GMT -0600)
Lake View | | Change Station
CLOSE
Current Station
Personal Weather Station
Location: Lake View, AL
Elevation: 590 ft
Nearby Weather Stations

Elev 590 ft 33.27 °N, 87.16 °W | Updated 2 seconds ago

Mostly Cloudy
Mostly Cloudy
39.8 °F
Feels Like 40 °F
N
0.0
Wind Variable Wind from WNW
Gusts 0.0 mph

Today
High -- | Low -- °F
--% Chance of Precip.
Yesterday
High -- | Low -- °F
Precip. -- in
Pressure 30.14 in
Visibility 10.0 miles
Clouds Clear
Windchill 40 °F
Dew Point 36 °F
Humidity 85%
Rainfall 0.00 in
Snow Depth Not available.
6:35 AM 5:30 PM
Waxing Crescent, 19% visible
METAR KTCL 120853Z AUTO 36005KT 10SM CLR 04/00 A3015 RMK AO2 SLP207 T00440000 58005 TSNO
Pressure 30.14 in
Visibility 10.0 miles
Clouds Clear
Windchill 40 °F
Dew Point 36 °F
Humidity 85%
Rainfall 0.00 in
Snow Depth Not available.
6:35 AM 5:30 PM
Waxing Crescent, 19% visible
METAR KTCL 120853Z AUTO 36005KT 10SM CLR 04/00 A3015 RMK AO2 SLP207 T00440000 58005 TSNO

10-Day Weather Forecast

Almanac

Astronomy

Feb. 12, 2016 Rise Set
Actual Time
Civil Twilight
Nautical Twilight
Astronomical Twilight
Moon
Length of Visible Light
Length of Day
Tomorrow will be .
, % of the Moon is Illuminated

Today's Extremes

State Highs State Lows

Community

WunderPhotos

Upload Photos

1,892,286 photos uploaded!

WunderBlog® & News

Nearby

Air Quality

  Air Quality AQ Index Pollutant
Not available.

Snow Depth

Station Depth Elevation

Earthquake Activity

City Distance Mag. Time & Date
Minimum magnitude displayed is 2.5.

Coastal Water Temperatures

Place Temperature

Stations

Nearby Weather Stations

Station Location Temp. Windchill Dew Point Humidity Wind Precip. Elev Updated Type
                   

Watches & Warnings

There are currently no watches in effect.